createdAt,value
2018-12-13T00:01:24.124Z,54.00
2018-12-13T00:03:52.731Z,55.10
2018-12-13T00:06:20.454Z,55.90
2018-12-13T00:08:48.730Z,57.20
2018-12-13T00:11:16.542Z,57.30
2018-12-13T00:13:44.173Z,58.60
2018-12-13T00:16:11.982Z,59.10
2018-12-13T00:18:39.699Z,59.00
2018-12-13T00:21:07.555Z,58.60
2018-12-13T00:23:35.202Z,60.30
2018-12-13T00:26:02.820Z,60.50
2018-12-13T00:28:30.568Z,60.70
2018-12-13T00:30:58.274Z,60.80
2018-12-13T00:33:25.930Z,60.90
2018-12-13T00:35:53.570Z,60.80
2018-12-13T00:38:21.499Z,61.60
2018-12-13T00:40:49.095Z,61.10
2018-12-13T00:43:16.980Z,60.30
2018-12-13T00:45:44.663Z,60.20
2018-12-13T00:48:12.411Z,60.30
2018-12-13T00:50:40.103Z,58.40
2018-12-13T00:53:08.288Z,54.10
2018-12-13T00:55:35.962Z,52.00
2018-12-13T00:58:03.656Z,52.50
2018-12-13T01:00:31.445Z,51.20
2018-12-13T01:02:59.037Z,51.10
2018-12-13T01:05:26.699Z,51.50
2018-12-13T01:07:54.554Z,49.70
2018-12-13T01:10:22.241Z,48.90
2018-12-13T01:12:49.982Z,46.60
2018-12-13T01:15:17.734Z,47.60
2018-12-13T01:17:45.345Z,48.80
2018-12-13T01:20:13.089Z,49.20
2018-12-13T01:22:41.405Z,50.00
2018-12-13T01:25:08.975Z,48.30
2018-12-13T01:27:36.752Z,47.30
2018-12-13T01:30:04.706Z,47.50
2018-12-13T01:32:32.759Z,47.30
2018-12-13T01:35:00.465Z,47.40
2018-12-13T01:37:28.262Z,48.40
2018-12-13T01:39:55.914Z,49.20
2018-12-13T01:42:23.604Z,49.20
2018-12-13T01:44:52.061Z,47.30
2018-12-13T01:47:20.368Z,48.70
2018-12-13T01:49:48.316Z,47.20
2018-12-13T01:52:17.390Z,45.60
2018-12-13T01:54:45.113Z,45.70
2018-12-13T01:57:12.836Z,46.10
2018-12-13T01:59:41.053Z,46.60
2018-12-13T02:02:09.296Z,48.00
2018-12-13T02:04:37.236Z,47.90
2018-12-13T02:07:05.011Z,49.20
2018-12-13T02:09:32.718Z,51.30
2018-12-13T02:12:00.982Z,54.00
2018-12-13T02:14:28.777Z,55.10
2018-12-13T02:16:56.518Z,55.20
2018-12-13T02:19:24.786Z,58.10
2018-12-13T02:21:52.947Z,57.20
2018-12-13T02:24:20.619Z,56.10
2018-12-13T02:26:48.259Z,58.20
2018-12-13T02:29:15.891Z,57.30
2018-12-13T02:31:43.524Z,57.30
2018-12-13T02:34:11.525Z,57.30
2018-12-13T02:36:40.020Z,57.20
2018-12-13T02:39:07.684Z,57.50
2018-12-13T02:41:35.378Z,57.20
2018-12-13T02:44:03.500Z,58.40
2018-12-13T02:46:31.180Z,58.40
2018-12-13T02:49:08.551Z,59.40
2018-12-13T02:51:36.963Z,59.70
2018-12-13T02:54:04.753Z,60.30
2018-12-13T02:56:32.596Z,60.30
2018-12-13T02:59:00.196Z,53.70
2018-12-13T03:01:28.527Z,52.00
2018-12-13T03:03:57.537Z,51.70
2018-12-13T03:06:25.199Z,51.80
2018-12-13T03:08:52.822Z,52.10
2018-12-13T03:11:21.098Z,50.30
2018-12-13T03:13:48.802Z,47.60
2018-12-13T03:16:16.421Z,47.30
2018-12-13T03:18:44.894Z,47.30
2018-12-13T03:21:12.594Z,47.20
2018-12-13T03:23:40.317Z,46.60
2018-12-13T03:26:14.803Z,45.30
2018-12-13T03:28:42.671Z,44.80
2018-12-13T03:31:10.504Z,44.80
2018-12-13T03:33:38.247Z,45.70
2018-12-13T03:36:06.532Z,45.70
2018-12-13T03:38:34.780Z,45.30
2018-12-13T03:41:02.566Z,45.20
2018-12-13T03:43:30.209Z,45.50
2018-12-13T03:45:58.288Z,46.10
2018-12-13T03:48:26.562Z,45.40
2018-12-13T03:50:54.366Z,45.70
2018-12-13T03:53:22.104Z,44.90
2018-12-13T03:55:49.778Z,44.10
2018-12-13T03:58:17.543Z,43.60
2018-12-13T04:00:45.586Z,43.70
2018-12-13T04:03:13.365Z,43.70
2018-12-13T04:05:41.924Z,42.30
2018-12-13T04:08:10.081Z,41.70
2018-12-13T04:10:37.711Z,41.50
2018-12-13T04:13:05.367Z,42.40
2018-12-13T04:15:33.495Z,42.20
2018-12-13T04:18:01.475Z,43.00
2018-12-13T04:20:29.290Z,42.90
2018-12-13T04:22:57.187Z,43.50
2018-12-13T04:25:25.483Z,43.20
2018-12-13T04:27:53.846Z,44.00
2018-12-13T04:30:21.631Z,43.60
2018-12-13T04:32:49.903Z,43.10
2018-12-13T04:35:17.757Z,42.00
2018-12-13T04:37:45.481Z,41.30
2018-12-13T04:40:13.483Z,42.50
2018-12-13T04:42:41.109Z,41.40
2018-12-13T04:45:08.817Z,41.80
2018-12-13T04:47:36.789Z,41.90
2018-12-13T04:50:05.801Z,41.50
2018-12-13T04:52:33.549Z,42.20
2018-12-13T04:55:01.207Z,43.00
2018-12-13T04:57:28.906Z,42.90
2018-12-13T04:59:57.933Z,42.60
2018-12-13T05:02:25.695Z,43.20
2018-12-13T05:04:53.325Z,43.30
2018-12-13T05:07:20.950Z,44.20
2018-12-13T05:09:48.646Z,45.50
2018-12-13T05:12:16.486Z,46.50
2018-12-13T05:14:46.132Z,47.60
2018-12-13T05:17:13.773Z,45.30
2018-12-13T05:19:41.458Z,43.50
2018-12-13T05:22:09.178Z,43.10
2018-12-13T05:24:37.219Z,42.70
2018-12-13T05:27:05.495Z,41.40
2018-12-13T05:29:33.849Z,41.10
2018-12-13T05:32:01.614Z,40.10
2018-12-13T05:34:29.991Z,39.80
2018-12-13T05:36:57.707Z,40.30
2018-12-13T05:39:25.421Z,40.00
2018-12-13T05:41:53.513Z,40.80
2018-12-13T05:44:27.174Z,40.70
2018-12-13T05:46:55.922Z,40.70
2018-12-13T05:49:23.618Z,40.20
2018-12-13T05:51:51.338Z,40.20
2018-12-13T05:54:19.096Z,40.70
2018-12-13T05:56:47.528Z,39.70
2018-12-13T05:59:15.218Z,39.50
2018-12-13T06:01:43.524Z,39.20
2018-12-13T06:04:11.768Z,39.50
2018-12-13T06:06:39.806Z,39.20
2018-12-13T06:09:07.618Z,39.20
2018-12-13T06:11:35.630Z,38.80
2018-12-13T06:14:03.469Z,39.70
2018-12-13T06:16:31.483Z,39.30
2018-12-13T06:18:59.672Z,39.50
2018-12-13T06:21:27.299Z,40.20
2018-12-13T06:23:55.337Z,40.70
2018-12-13T06:26:23.842Z,41.40
2018-12-13T06:28:52.781Z,40.90
2018-12-13T06:31:20.720Z,40.90
2018-12-13T06:33:49.021Z,41.20
2018-12-13T06:36:17.311Z,41.10
2018-12-13T06:38:45.168Z,41.20
2018-12-13T06:41:13.944Z,41.00
2018-12-13T06:43:41.717Z,40.30
2018-12-13T06:46:09.403Z,39.00
2018-12-13T06:48:37.327Z,39.40
2018-12-13T06:51:05.214Z,40.00
2018-12-13T06:53:33.131Z,38.50
2018-12-13T06:56:03.267Z,38.80
2018-12-13T06:58:31.019Z,37.90
2018-12-13T07:00:58.811Z,37.80
2018-12-13T07:03:26.783Z,38.00
2018-12-13T07:05:54.650Z,36.00
2018-12-13T07:08:22.379Z,36.60
2018-12-13T07:10:50.345Z,37.20
2018-12-13T07:13:18.230Z,36.90
2018-12-13T07:15:45.967Z,36.80
2018-12-13T07:18:14.330Z,36.40
2018-12-13T07:20:42.166Z,35.30
2018-12-13T07:23:10.547Z,35.30
2018-12-13T07:25:38.151Z,35.00
2018-12-13T07:28:06.554Z,35.30
2018-12-13T07:30:34.840Z,35.10
2018-12-13T07:33:03.837Z,34.50
2018-12-13T07:35:32.396Z,34.40
2018-12-13T07:38:00.490Z,34.30
2018-12-13T07:40:28.389Z,34.60
2018-12-13T07:42:56.447Z,35.20
2018-12-13T07:45:24.422Z,34.70
2018-12-13T07:47:52.604Z,35.00
2018-12-13T07:50:20.962Z,34.50
2018-12-13T07:52:49.064Z,34.70
2018-12-13T07:55:16.756Z,35.00
2018-12-13T07:57:44.532Z,34.70
2018-12-13T08:00:12.284Z,34.50
2018-12-13T08:02:40.724Z,34.90
2018-12-13T08:05:09.037Z,34.40
2018-12-13T08:07:37.052Z,33.90
2018-12-13T08:10:05.580Z,33.90
2018-12-13T08:12:33.505Z,33.90
2018-12-13T08:15:01.877Z,34.80
2018-12-13T08:17:34.006Z,34.10
2018-12-13T08:20:03.409Z,33.70
2018-12-13T08:22:32.040Z,33.30
2018-12-13T08:25:00.678Z,33.10
2018-12-13T08:27:28.757Z,33.80
2018-12-13T08:29:57.497Z,33.70
2018-12-13T08:32:25.390Z,33.40
2018-12-13T08:34:54.244Z,33.60
2018-12-13T08:37:23.284Z,33.30
2018-12-13T08:39:51.795Z,33.70
2018-12-13T08:42:19.746Z,33.40
2018-12-13T08:44:48.015Z,33.40
2018-12-13T08:47:16.482Z,32.90
2018-12-13T08:49:44.930Z,32.00
2018-12-13T08:52:13.076Z,32.70
2018-12-13T08:54:41.252Z,32.10
2018-12-13T08:57:09.029Z,32.10
2018-12-13T08:59:38.720Z,32.70
2018-12-13T09:02:06.714Z,32.50
2018-12-13T09:04:35.474Z,33.00
2018-12-13T09:07:03.977Z,31.70
2018-12-13T09:09:32.096Z,32.40
2018-12-13T09:12:00.030Z,32.40
2018-12-13T09:14:27.939Z,32.20
2018-12-13T09:16:55.728Z,31.60
2018-12-13T09:19:23.906Z,31.20
2018-12-13T09:21:51.863Z,32.10
2018-12-13T09:24:19.758Z,31.30
2018-12-13T09:26:47.561Z,31.80
2018-12-13T09:29:15.417Z,31.30
2018-12-13T09:31:43.263Z,31.20
2018-12-13T09:34:11.256Z,31.20
2018-12-13T09:36:38.989Z,30.40
2018-12-13T09:39:07.333Z,31.20
2018-12-13T09:41:35.242Z,30.50
2018-12-13T09:44:03.925Z,30.80
2018-12-13T09:46:32.076Z,31.20
2018-12-13T09:48:59.926Z,30.80
2018-12-13T09:51:27.883Z,29.80
2018-12-13T09:53:55.787Z,31.50
2018-12-13T09:56:23.575Z,30.20
2018-12-13T09:58:51.594Z,30.40
2018-12-13T10:01:19.499Z,30.00
2018-12-13T10:03:48.182Z,29.60
2018-12-13T10:06:16.331Z,29.50
2018-12-13T10:08:46.404Z,30.40
2018-12-13T10:11:14.019Z,29.70
2018-12-13T10:13:41.859Z,29.60
2018-12-13T10:16:10.062Z,29.40
2018-12-13T10:18:37.865Z,29.60
2018-12-13T10:21:05.624Z,28.60
2018-12-13T10:23:33.332Z,29.40
2018-12-13T10:26:01.342Z,28.40
2018-12-13T10:28:29.137Z,28.40
2018-12-13T10:30:56.929Z,29.10
2018-12-13T10:33:24.677Z,28.80
2018-12-13T10:35:52.882Z,28.90
2018-12-13T10:38:21.033Z,27.90
2018-12-13T10:40:48.982Z,28.40
2018-12-13T10:43:16.736Z,28.00
2018-12-13T10:45:45.557Z,28.20
2018-12-13T10:48:13.251Z,28.90
2018-12-13T10:50:41.228Z,28.50
2018-12-13T10:53:09.091Z,28.60
2018-12-13T10:55:37.069Z,28.30
2018-12-13T10:58:04.932Z,28.20
2018-12-13T11:00:36.285Z,28.10
2018-12-13T11:03:21.355Z,28.30
2018-12-13T11:05:49.430Z,27.90
2018-12-13T11:08:17.330Z,27.90
2018-12-13T11:10:45.161Z,28.10
2018-12-13T11:13:13.300Z,28.80
2018-12-13T11:15:41.083Z,27.60
2018-12-13T11:18:08.841Z,28.10
2018-12-13T11:20:36.604Z,27.90
2018-12-13T11:23:04.365Z,28.00
2018-12-13T11:25:32.472Z,27.60
2018-12-13T11:29:15.758Z,28.00
2018-12-13T11:31:44.539Z,28.40
2018-12-13T11:34:12.317Z,28.20
2018-12-13T11:36:40.097Z,27.70
2018-12-13T11:39:07.851Z,27.80
2018-12-13T11:41:35.691Z,27.80
2018-12-13T11:44:06.538Z,28.10
2018-12-13T11:46:34.268Z,27.80
2018-12-13T11:49:02.080Z,28.00
2018-12-13T11:51:30.083Z,28.00
2018-12-13T11:53:58.071Z,27.20
2018-12-13T11:56:26.274Z,27.20
2018-12-13T11:58:54.049Z,27.80
2018-12-13T12:01:23.131Z,27.50
2018-12-13T12:03:50.874Z,27.80
2018-12-13T12:06:18.835Z,26.90
2018-12-13T12:08:46.657Z,26.50
2018-12-13T12:11:14.964Z,27.50
2018-12-13T12:13:43.611Z,27.10
2018-12-13T12:16:11.580Z,27.00
2018-12-13T12:18:39.390Z,26.90
2018-12-13T12:21:07.154Z,26.80
2018-12-13T12:23:35.198Z,26.90
2018-12-13T12:26:03.200Z,27.20
2018-12-13T12:28:31.177Z,26.20
2018-12-13T12:30:59.358Z,26.50
2018-12-13T12:33:27.314Z,26.10
2018-12-13T12:35:55.337Z,26.20
2018-12-13T12:38:23.304Z,27.10
2018-12-13T12:40:51.015Z,26.30
2018-12-13T12:43:19.558Z,26.50
2018-12-13T12:45:48.486Z,26.40
2018-12-13T12:48:16.361Z,27.00
2018-12-13T12:50:45.271Z,26.30
2018-12-13T12:53:13.190Z,26.60
2018-12-13T12:55:41.186Z,26.60
2018-12-13T12:58:09.723Z,27.10
2018-12-13T13:00:38.355Z,27.20
2018-12-13T13:03:06.422Z,26.50
2018-12-13T13:05:35.104Z,26.40
2018-12-13T13:08:03.142Z,26.40
2018-12-13T13:10:31.916Z,25.90
2018-12-13T13:12:59.623Z,26.60
2018-12-13T13:15:27.355Z,26.20
2018-12-13T13:17:55.371Z,25.80
2018-12-13T13:20:23.531Z,26.10
2018-12-13T13:22:51.458Z,26.30
2018-12-13T13:25:19.915Z,26.30
2018-12-13T13:27:47.757Z,26.20
2018-12-13T13:30:19.491Z,26.40
2018-12-13T13:32:47.268Z,26.10
2018-12-13T13:35:15.124Z,26.20
2018-12-13T13:37:43.087Z,26.30
2018-12-13T13:40:10.884Z,27.10
2018-12-13T13:42:42.777Z,26.40
2018-12-13T13:45:11.298Z,26.40
2018-12-13T13:47:39.793Z,26.50
2018-12-13T13:50:07.839Z,26.50
2018-12-13T13:52:36.646Z,26.70
2018-12-13T13:55:05.120Z,26.80
2018-12-13T13:57:33.001Z,27.00
2018-12-13T14:00:00.839Z,27.00
2018-12-13T14:02:29.426Z,27.00
2018-12-13T14:04:57.217Z,27.30
2018-12-13T14:07:24.875Z,27.00
2018-12-13T14:09:53.261Z,27.00
2018-12-13T14:12:21.098Z,27.30
2018-12-13T14:14:49.468Z,26.70
2018-12-13T14:17:17.890Z,26.90
2018-12-13T14:19:46.665Z,26.90
2018-12-13T14:22:14.428Z,26.80
2018-12-13T14:24:42.467Z,27.00
2018-12-13T14:27:10.678Z,26.90
2018-12-13T14:29:38.397Z,26.30
2018-12-13T14:32:06.138Z,26.70
2018-12-13T14:34:34.504Z,27.00
2018-12-13T14:37:02.868Z,26.80
2018-12-13T14:39:30.674Z,26.90
2018-12-13T14:41:58.444Z,26.70
2018-12-13T14:44:26.839Z,27.20
2018-12-13T14:46:54.606Z,26.90
2018-12-13T14:49:22.770Z,26.70
2018-12-13T14:51:51.431Z,26.70
2018-12-13T14:54:19.482Z,26.70
2018-12-13T14:56:47.882Z,26.70
2018-12-13T14:59:16.103Z,27.00
2018-12-13T15:01:43.899Z,27.40
2018-12-13T15:04:11.711Z,27.80
2018-12-13T15:06:39.538Z,26.60
2018-12-13T15:09:07.917Z,26.70
2018-12-13T15:11:36.657Z,27.10
2018-12-13T15:14:05.667Z,26.70
2018-12-13T15:16:34.155Z,26.60
2018-12-13T15:19:06.054Z,27.30
2018-12-13T15:21:33.907Z,27.10
2018-12-13T15:24:01.917Z,27.00
2018-12-13T15:26:30.376Z,26.80
2018-12-13T15:28:58.185Z,27.30
2018-12-13T15:31:25.967Z,27.20
2018-12-13T15:33:53.913Z,26.90
2018-12-13T15:36:21.713Z,27.20
2018-12-13T15:38:49.518Z,26.90
2018-12-13T15:41:17.357Z,27.30
2018-12-13T15:43:45.239Z,26.60
2018-12-13T15:46:13.084Z,26.90
2018-12-13T15:48:42.155Z,27.10
2018-12-13T15:51:11.073Z,27.30
2018-12-13T15:53:39.834Z,26.50
2018-12-13T15:56:07.825Z,26.50
2018-12-13T15:58:36.171Z,26.10
2018-12-13T16:01:03.990Z,26.50
2018-12-13T16:03:31.925Z,26.50
2018-12-13T16:05:59.697Z,26.20
2018-12-13T16:08:27.561Z,26.30
2018-12-13T16:10:55.331Z,26.60
2018-12-13T16:13:23.189Z,25.70
2018-12-13T16:15:51.671Z,25.60
2018-12-13T16:18:19.860Z,26.00
2018-12-13T16:20:48.460Z,25.30
2018-12-13T16:23:16.639Z,26.00
2018-12-13T16:25:45.234Z,25.40
2018-12-13T16:28:13.356Z,25.60
2018-12-13T16:30:41.138Z,25.40
2018-12-13T16:33:09.730Z,25.50
2018-12-13T16:35:38.536Z,25.20
2018-12-13T16:38:06.834Z,25.50
2018-12-13T16:40:34.628Z,25.30
2018-12-13T16:43:02.647Z,25.60
2018-12-13T16:45:30.591Z,25.30
2018-12-13T16:47:58.456Z,25.50
2018-12-13T16:50:26.430Z,25.60
2018-12-13T16:52:54.569Z,25.60
2018-12-13T16:55:22.385Z,25.60
2018-12-13T16:57:50.924Z,25.60
2018-12-13T17:00:18.744Z,25.60
2018-12-13T17:02:46.610Z,25.50
2018-12-13T17:05:15.291Z,25.70
2018-12-13T17:07:43.232Z,25.70
2018-12-13T17:10:16.587Z,25.50
2018-12-13T17:12:40.920Z,25.70
2018-12-13T17:15:10.390Z,25.90
2018-12-13T17:17:38.487Z,25.70
2018-12-13T17:20:06.616Z,25.60
2018-12-13T17:22:34.462Z,25.90
2018-12-13T17:25:02.435Z,25.40
2018-12-13T17:27:30.275Z,25.60
2018-12-13T17:29:58.810Z,25.90
2018-12-13T17:32:26.847Z,25.90
2018-12-13T17:34:54.849Z,25.70
2018-12-13T17:37:22.632Z,26.20
2018-12-13T17:39:50.389Z,25.50
2018-12-13T17:42:21.999Z,25.50
2018-12-13T17:44:49.853Z,25.70
2018-12-13T17:47:17.772Z,26.00
2018-12-13T17:49:45.566Z,25.40
2018-12-13T17:52:13.396Z,25.70
2018-12-13T17:54:41.236Z,26.20
2018-12-13T17:57:09.589Z,25.60
2018-12-13T17:59:37.897Z,26.10
2018-12-13T18:02:05.726Z,25.60
2018-12-13T18:04:33.530Z,26.20
2018-12-13T18:07:01.301Z,26.20
2018-12-13T18:09:30.183Z,26.30
2018-12-13T18:11:57.976Z,26.00
2018-12-13T18:14:25.792Z,25.90
2018-12-13T18:16:53.846Z,25.80
2018-12-13T18:19:21.746Z,26.20
2018-12-13T18:21:49.575Z,26.20
2018-12-13T18:24:17.370Z,26.00
2018-12-13T18:26:45.484Z,25.90
2018-12-13T18:29:13.316Z,26.10
2018-12-13T18:31:41.729Z,26.10
2018-12-13T18:34:09.524Z,25.70
2018-12-13T18:36:41.462Z,26.30
2018-12-13T18:39:09.324Z,26.50
2018-12-13T18:41:41.043Z,25.70
2018-12-13T18:44:09.408Z,25.90
2018-12-13T18:46:37.545Z,25.90
2018-12-13T18:49:05.534Z,26.00
2018-12-13T18:51:33.409Z,25.60
2018-12-13T18:54:01.416Z,25.30
2018-12-13T18:56:29.940Z,25.50
2018-12-13T18:58:57.822Z,25.30
2018-12-13T19:01:26.214Z,25.70
2018-12-13T19:03:54.331Z,25.70
2018-12-13T19:06:22.101Z,25.30
2018-12-13T19:08:49.907Z,25.40
2018-12-13T19:11:17.912Z,25.70
2018-12-13T19:13:49.735Z,25.50
2018-12-13T19:16:17.607Z,25.50
2018-12-13T19:18:49.311Z,25.50
2018-12-13T19:21:17.136Z,25.20
2018-12-13T19:23:45.596Z,25.20
2018-12-13T19:26:13.576Z,25.20
2018-12-13T19:28:42.169Z,25.50
2018-12-13T19:31:09.967Z,25.90
2018-12-13T19:33:37.776Z,25.70
2018-12-13T19:36:05.902Z,25.70
2018-12-13T19:38:34.175Z,25.30
2018-12-13T19:41:02.297Z,25.40
2018-12-13T19:43:30.248Z,25.80
2018-12-13T19:45:58.109Z,26.20
2018-12-13T19:48:26.041Z,25.30
2018-12-13T19:50:54.786Z,25.80
2018-12-13T19:53:23.126Z,26.00
2018-12-13T19:55:50.950Z,25.50
2018-12-13T19:58:18.854Z,26.10
2018-12-13T20:00:46.983Z,25.90
2018-12-13T20:03:15.043Z,25.70
2018-12-13T20:05:43.461Z,25.50
2018-12-13T20:08:11.185Z,25.90
2018-12-13T20:10:39.372Z,25.50
2018-12-13T20:13:07.247Z,25.70
2018-12-13T20:15:35.184Z,25.60
2018-12-13T20:18:08.102Z,25.50
2018-12-13T20:20:36.064Z,25.50
2018-12-13T20:23:05.261Z,25.70
2018-12-13T20:25:33.477Z,25.60
2018-12-13T20:28:01.258Z,25.40
2018-12-13T20:30:29.005Z,25.50
2018-12-13T20:32:56.907Z,25.50
2018-12-13T20:35:25.911Z,25.50
2018-12-13T20:37:54.532Z,25.60
2018-12-13T20:40:24.338Z,25.70
2018-12-13T20:42:52.382Z,25.40
2018-12-13T20:45:20.158Z,25.80
2018-12-13T20:47:48.022Z,25.70
2018-12-13T20:50:16.007Z,25.50
2018-12-13T20:52:44.582Z,25.60
2018-12-13T20:55:12.447Z,26.00
2018-12-13T20:57:40.311Z,25.90
2018-12-13T21:00:10.453Z,25.90
2018-12-13T21:02:38.199Z,25.70
2018-12-13T21:05:06.142Z,26.10
2018-12-13T21:07:34.673Z,26.00
2018-12-13T21:10:06.477Z,25.90
2018-12-13T21:12:34.169Z,25.90
2018-12-13T21:15:01.974Z,25.90
2018-12-13T21:17:29.874Z,26.70
2018-12-13T21:19:57.553Z,25.40
2018-12-13T21:22:25.244Z,25.90
2018-12-13T21:24:52.976Z,25.90
2018-12-13T21:27:20.741Z,25.80
2018-12-13T21:29:48.531Z,26.10
2018-12-13T21:32:16.257Z,26.50
2018-12-13T21:34:44.528Z,26.20
2018-12-13T21:37:12.222Z,26.00
2018-12-13T21:39:40.360Z,25.70
2018-12-13T21:42:08.185Z,26.10
2018-12-13T21:44:37.089Z,26.40
2018-12-13T21:47:05.597Z,26.20
2018-12-13T21:49:33.546Z,26.30
2018-12-13T21:52:01.269Z,26.20
2018-12-13T21:54:29.644Z,25.80
2018-12-13T21:56:57.303Z,26.40
2018-12-13T21:59:24.995Z,26.40
2018-12-13T22:01:53.061Z,25.70
2018-12-13T22:04:22.184Z,26.20
2018-12-13T22:06:49.864Z,25.80
2018-12-13T22:09:17.618Z,26.30
2018-12-13T22:11:45.851Z,26.00
2018-12-13T22:14:13.619Z,25.70
2018-12-13T22:16:42.599Z,26.10
2018-12-13T22:19:10.872Z,26.30
2018-12-13T22:21:38.868Z,26.30
2018-12-13T22:24:06.580Z,26.30
2018-12-13T22:26:34.516Z,26.10
2018-12-13T22:29:02.853Z,26.50
2018-12-13T22:31:30.517Z,26.50
2018-12-13T22:33:58.892Z,26.50
2018-12-13T22:36:26.900Z,26.00
2018-12-13T22:38:54.526Z,26.30
2018-12-13T22:41:26.304Z,26.10
2018-12-13T22:43:52.334Z,26.30
2018-12-13T22:46:20.169Z,26.10
2018-12-13T22:48:47.834Z,25.90
2018-12-13T22:51:15.689Z,26.30
2018-12-13T22:53:43.511Z,26.00
2018-12-13T22:56:11.129Z,25.50
2018-12-13T22:58:38.782Z,25.90
2018-12-13T23:01:07.206Z,25.90
2018-12-13T23:03:35.191Z,25.80
2018-12-13T23:06:02.768Z,25.70
2018-12-13T23:08:30.395Z,25.70
2018-12-13T23:10:58.467Z,25.80
2018-12-13T23:13:26.216Z,26.20
2018-12-13T23:15:54.818Z,26.20
2018-12-13T23:18:22.826Z,25.40
2018-12-13T23:20:50.519Z,25.70
2018-12-13T23:23:18.250Z,25.90
2018-12-13T23:25:45.902Z,26.00
2018-12-13T23:28:13.685Z,26.00
2018-12-13T23:30:41.370Z,26.00
2018-12-13T23:33:09.192Z,25.80
2018-12-13T23:35:36.875Z,26.20
2018-12-13T23:38:04.620Z,26.20
2018-12-13T23:40:32.344Z,26.10
2018-12-13T23:43:00.157Z,25.90
2018-12-13T23:45:27.838Z,25.70
2018-12-13T23:47:55.664Z,26.10
2018-12-13T23:50:23.326Z,26.30
2018-12-13T23:52:51.047Z,26.30
2018-12-13T23:55:18.691Z,26.10
2018-12-13T23:57:46.398Z,26.00
